createdAt,value
2023-04-19T07:18:28.986Z,9.07
2023-04-19T07:20:55.644Z,9.07
2023-04-19T07:23:19.365Z,9.21
2023-04-19T07:25:40.387Z,9.41
2023-04-19T07:26:41.948Z,9.32
2023-04-19T07:29:02.696Z,9.50
2023-04-19T07:31:21.247Z,9.60
2023-04-19T07:32:22.646Z,9.63
2023-04-19T07:33:28.308Z,9.72
2023-04-19T07:34:29.819Z,9.85
2023-04-19T07:35:31.414Z,10.01
2023-04-19T07:36:34.915Z,10.07
2023-04-19T07:37:36.255Z,10.11
2023-04-19T07:38:37.673Z,10.21
2023-04-19T07:39:39.624Z,10.11
2023-04-19T07:40:40.993Z,10.25
2023-04-19T07:41:42.349Z,10.34
2023-04-19T07:42:44.418Z,10.64
2023-04-19T07:43:45.771Z,10.24
2023-04-19T07:44:47.106Z,10.52
2023-04-19T07:45:48.442Z,10.81
2023-04-19T07:46:49.972Z,11.20
2023-04-19T07:47:51.444Z,11.31
2023-04-19T07:48:52.805Z,11.91
2023-04-19T07:49:56.080Z,12.33
2023-04-19T07:50:57.418Z,12.48
2023-04-19T07:51:58.823Z,11.54
2023-04-19T07:53:00.288Z,11.19
2023-04-19T07:54:01.705Z,11.56
2023-04-19T07:55:03.341Z,11.96
2023-04-19T07:56:05.212Z,11.42
2023-04-19T07:57:06.603Z,10.61
2023-04-19T07:58:08.058Z,11.18
2023-04-19T07:59:09.970Z,11.45
2023-04-19T08:00:12.888Z,11.75
2023-04-19T08:01:14.333Z,12.24
2023-04-19T08:02:17.354Z,11.91
2023-04-19T08:03:19.025Z,11.97
2023-04-19T08:04:23.075Z,12.68
2023-04-19T08:05:25.073Z,11.93
2023-04-19T08:06:27.016Z,12.32
2023-04-19T08:07:28.416Z,12.50
2023-04-19T08:08:29.888Z,12.29
2023-04-19T08:09:33.914Z,12.27
2023-04-19T08:10:36.104Z,12.09
2023-04-19T08:11:37.604Z,12.18
2023-04-19T08:12:45.241Z,12.63
2023-04-19T08:14:09.349Z,12.90
2023-04-19T08:16:56.315Z,13.01
2023-04-19T08:17:44.069Z,12.90
2023-04-19T08:18:48.409Z,13.01
2023-04-19T08:19:50.631Z,12.96
2023-04-19T08:20:52.122Z,13.13
2023-04-19T08:21:53.531Z,13.21
2023-04-19T08:22:54.942Z,13.53
2023-04-19T08:23:56.332Z,13.12
2023-04-19T08:24:57.725Z,13.23
2023-04-19T08:25:59.084Z,13.05
2023-04-19T08:27:01.547Z,13.18
2023-04-19T08:28:03.181Z,12.98
2023-04-19T08:29:04.580Z,13.15
2023-04-19T08:30:07.836Z,13.20
2023-04-19T08:31:09.385Z,13.17
2023-04-19T08:32:12.572Z,13.28
2023-04-19T08:33:14.074Z,12.79
2023-04-19T08:34:15.459Z,13.10
2023-04-19T08:35:17.183Z,13.38
2023-04-19T08:36:22.334Z,13.30
2023-04-19T08:37:30.589Z,12.60
2023-04-19T08:38:32.132Z,12.53
2023-04-19T08:39:34.651Z,12.67
2023-04-19T08:40:41.539Z,12.69
2023-04-19T08:41:44.882Z,11.66
2023-04-19T08:42:47.802Z,11.84
2023-04-19T08:43:52.293Z,12.38
2023-04-19T08:45:22.721Z,12.34
2023-04-19T08:46:19.620Z,12.22
2023-04-19T08:47:29.617Z,12.51
2023-04-19T08:48:35.646Z,12.56
2023-04-19T08:49:41.949Z,12.53
2023-04-19T08:51:00.578Z,12.61
2023-04-19T08:52:08.097Z,12.71
2023-04-19T08:54:16.341Z,12.98
2023-04-19T08:55:18.202Z,13.09
2023-04-19T08:56:28.060Z,12.86
2023-04-19T08:57:34.708Z,12.72
2023-04-19T08:58:52.680Z,12.78
2023-04-19T08:59:58.549Z,12.66
2023-04-19T09:01:00.626Z,13.10
2023-04-19T09:02:02.254Z,13.37
2023-04-19T09:03:05.131Z,12.96
2023-04-19T09:04:27.175Z,13.53
2023-04-19T09:05:29.585Z,13.73
2023-04-19T09:06:36.689Z,13.82
2023-04-19T09:07:38.317Z,13.80
2023-04-19T09:08:41.135Z,13.96
2023-04-19T09:09:55.643Z,13.55
2023-04-19T09:11:03.737Z,13.84
2023-04-19T09:12:16.523Z,14.03
2023-04-19T09:13:18.469Z,13.78
2023-04-19T09:14:21.957Z,12.89
2023-04-19T09:15:36.958Z,13.31
2023-04-19T09:16:39.342Z,13.50
2023-04-19T09:17:41.052Z,13.27
2023-04-19T09:19:08.240Z,13.80
2023-04-19T09:20:16.902Z,14.17
2023-04-19T09:21:29.538Z,14.31
2023-04-19T09:22:32.009Z,14.20
2023-04-19T09:23:33.457Z,14.02
2023-04-19T09:25:18.693Z,13.78
2023-04-19T09:27:06.497Z,13.58
2023-04-19T09:28:14.903Z,13.44
2023-04-19T09:29:17.441Z,13.61
2023-04-19T09:30:32.487Z,13.06
2023-04-19T09:32:47.738Z,12.88
2023-04-19T09:33:49.583Z,12.35
2023-04-19T09:34:58.779Z,12.72
2023-04-19T09:36:00.969Z,12.73
2023-04-19T09:37:22.759Z,12.60
2023-04-19T09:38:48.805Z,12.76
2023-04-19T09:39:50.650Z,12.70
2023-04-19T09:40:52.707Z,12.66
2023-04-19T09:41:54.863Z,12.80
2023-04-19T09:44:52.487Z,12.92
2023-04-19T09:45:43.962Z,12.99
2023-04-19T09:46:52.485Z,13.04
2023-04-19T09:48:07.743Z,13.21
2023-04-19T09:49:41.741Z,13.18
2023-04-19T09:51:02.400Z,13.05
2023-04-19T09:52:06.451Z,13.00
2023-04-19T09:53:08.151Z,12.68
2023-04-19T09:54:11.184Z,13.10
2023-04-19T09:55:22.744Z,13.28
2023-04-19T09:56:29.476Z,13.13
2023-04-19T09:57:32.372Z,12.94
2023-04-19T09:58:46.996Z,13.25
2023-04-19T09:59:52.382Z,12.48
2023-04-19T10:01:06.523Z,12.88
2023-04-19T10:02:14.359Z,13.44
2023-04-19T10:03:17.107Z,13.45
2023-04-19T10:04:33.568Z,13.72
2023-04-19T10:05:45.571Z,13.57
2023-04-19T10:07:13.911Z,13.65
2023-04-19T10:08:12.649Z,13.74
2023-04-19T10:09:14.256Z,13.40
2023-04-19T10:10:20.853Z,13.32
2023-04-19T10:11:27.215Z,13.12
2023-04-19T10:12:52.318Z,12.89
2023-04-19T10:13:57.388Z,13.31
2023-04-19T10:14:58.730Z,13.16
2023-04-19T10:16:11.631Z,13.24
2023-04-19T10:17:20.896Z,13.12
2023-04-19T10:18:23.169Z,12.96
2023-04-19T10:19:24.976Z,13.02
2023-04-19T10:20:58.487Z,12.79
2023-04-19T10:22:00.216Z,12.59
2023-04-19T10:23:01.968Z,12.38
2023-04-19T10:24:04.436Z,12.43
2023-04-19T10:25:14.353Z,12.34
2023-04-19T10:26:16.120Z,12.50
2023-04-19T10:27:25.652Z,12.05
2023-04-19T10:28:30.928Z,12.14
2023-04-19T10:29:54.810Z,12.53
2023-04-19T10:31:04.095Z,12.74
2023-04-19T10:32:06.422Z,12.78
2023-04-19T10:33:07.971Z,12.60
2023-04-19T10:34:12.582Z,12.75
2023-04-19T10:35:19.557Z,12.87
2023-04-19T10:36:21.683Z,12.85
2023-04-19T10:37:25.985Z,12.62
2023-04-19T10:38:38.978Z,12.94
2023-04-19T10:39:45.260Z,12.96
2023-04-19T10:41:01.569Z,12.84
2023-04-19T10:42:03.094Z,12.78
2023-04-19T10:43:10.384Z,12.63
2023-04-19T10:44:12.011Z,12.45
2023-04-19T10:45:33.358Z,12.09
2023-04-19T10:46:35.970Z,12.19
2023-04-19T10:47:44.826Z,12.23
2023-04-19T10:49:07.770Z,11.60
2023-04-19T10:50:09.711Z,11.52
2023-04-19T10:51:16.876Z,11.57
2023-04-19T10:52:29.436Z,11.75
2023-04-19T10:53:48.900Z,11.92
2023-04-19T10:54:56.968Z,11.92
2023-04-19T15:28:24.163Z,9.78
2023-04-19T15:29:25.621Z,9.84
2023-04-19T15:30:27.026Z,9.88
2023-04-19T15:31:28.429Z,10.03
2023-04-19T15:32:34.084Z,10.13
2023-04-19T15:33:36.698Z,10.69
2023-04-19T15:34:38.021Z,11.23
2023-04-19T15:35:39.430Z,11.61
2023-04-19T15:36:40.963Z,10.65
2023-04-19T15:37:43.786Z,10.94
2023-04-19T15:38:45.331Z,10.48
2023-04-19T15:39:49.436Z,10.79
2023-04-19T15:40:50.957Z,11.44
2023-04-19T15:41:52.340Z,11.99
2023-04-19T15:42:53.748Z,12.33
2023-04-19T15:43:55.943Z,12.09
2023-04-19T15:44:57.307Z,12.27
2023-04-19T15:45:58.821Z,12.07
2023-04-19T15:47:00.483Z,12.10
2023-04-19T15:48:01.982Z,12.77
2023-04-19T15:49:03.931Z,13.29
2023-04-19T15:50:05.850Z,13.62
2023-04-19T15:51:08.469Z,13.61
2023-04-19T15:52:09.794Z,13.25
2023-04-19T15:53:11.312Z,12.70
2023-04-19T15:54:14.709Z,12.83
2023-04-19T15:55:16.598Z,12.97
2023-04-19T15:56:18.026Z,13.67
2023-04-19T15:57:19.512Z,13.59
2023-04-19T15:58:20.902Z,12.84
2023-04-19T15:59:22.315Z,13.31
2023-04-19T16:00:23.793Z,13.43
2023-04-19T16:01:25.287Z,13.52
2023-04-19T16:02:27.042Z,14.26
2023-04-19T16:03:28.817Z,14.63
2023-04-19T16:04:31.328Z,14.06
2023-04-19T16:05:32.952Z,13.77
2023-04-19T16:06:34.371Z,13.85
2023-04-19T16:07:35.720Z,13.97
2023-04-19T16:08:37.156Z,13.92
2023-04-19T16:09:38.544Z,13.13
2023-04-19T16:10:39.971Z,12.21
2023-04-19T16:11:41.355Z,12.12
2023-04-19T16:12:44.133Z,13.06
2023-04-19T16:13:45.730Z,13.64
2023-04-19T16:14:47.097Z,13.08
2023-04-19T16:15:48.490Z,13.66
2023-04-19T16:16:50.244Z,13.51
2023-04-19T16:17:52.208Z,13.84
2023-04-19T16:18:53.667Z,14.22
2023-04-19T16:19:55.089Z,13.93
2023-04-19T16:20:56.477Z,13.73
2023-04-19T16:22:01.945Z,13.97
2023-04-19T16:23:03.844Z,14.10
2023-04-19T16:24:05.549Z,14.43
2023-04-19T16:25:07.402Z,14.65
2023-04-19T16:26:08.755Z,14.44
2023-04-19T16:27:10.204Z,15.08
2023-04-19T16:28:11.787Z,14.11
2023-04-19T16:29:13.233Z,14.19
2023-04-19T16:30:16.374Z,14.07
2023-04-19T16:31:18.114Z,13.52
2023-04-19T16:32:19.619Z,13.52
2023-04-19T16:33:21.198Z,13.09
2023-04-19T16:34:25.509Z,13.03
2023-04-19T16:35:27.122Z,12.58
2023-04-19T16:36:28.806Z,12.51
